Latest Weather Observations for Curtin

IDW60801

Issued at 4:04 am WST Sunday 11 December 2016 (issued every 30 minutes, with the page automatically refreshed every 10 minutes)

About weather observations | Map of weather stations | Latest weather observations for WA | Other Formats
Station Details ID: 003080 Name: CURTIN AERO Lat: -17.58 Lon: 123.83 Height: 77.5 m
Data from the previous 72 hours. | See also: Recent months at Curtin
Date/Time
WST
Temp
°C
App
Temp
°C
Dew
Point
°C
Rel
Hum
%
Delta-T
°C
Wind Press
QNH
hPa
Press
MSL
hPa
Rain since
9am
mm
Dir  Spd
km/h
Gust
km/h
Spd
kts
Gust
kts
11/04:00am 24.4 28.7 24.2 99 0.1 S 9 11 5 6 1009.7 1009.1 17.2
11/03:30am 24.3 28.4 24.0 98 0.2 SSW 9 11 5 6 1010.2 1009.6 17.2
11/03:00am 24.4 28.9 23.9 97 0.3 SW 7 9 4 5 1010.6 1010.0 17.2
11/02:30am 24.2 28.7 23.9 98 0.2 SE 7 9 4 5 1010.7 1010.1 17.0
11/02:00am 24.2 27.7 24.2 100 0.0 SE 13 17 7 9 1010.5 1009.9 16.4
11/01:30am 23.7 28.0 23.7 100 0.0 ENE 7 9 4 5 1010.4 1009.8 15.8
11/01:00am 23.6 27.9 23.6 100 0.0 ENE 7 9 4 5 1010.1 1009.5 15.0
11/12:30am 23.4 26.4 23.4 100 0.0 NW 13 19 7 10 1010.6 1010.0 13.8
11/12:00am 23.5 27.2 23.3 99 0.1 N 9 15 5 8 1010.5 1009.9 12.6
 
Date/Time
WST
Temp
°C
App
Temp
°C
Dew
Point
°C
Rel
Hum
%
Delta-T
°C
Wind Press
QNH
hPa
Press
MSL
hPa
Rain since
9am
mm
Dir  Spd
km/h
Gust
km/h
Spd
kts
Gust
kts
10/11:48pm 23.5 25.3 23.2 98 0.2 NE 19 32 10 17 1010.6 1010.0 11.2
10/11:30pm 24.0 25.6 23.3 96 0.5 ENE 20 28 11 15 1010.5 1009.9 4.2
10/11:18pm 24.4 26.1 23.4 94 0.7 ENE 20 32 11 17 1010.4 1009.8 3.2
10/11:00pm 24.7 25.8 23.7 94 0.7 ENE 24 33 13 18 1010.2 1009.6 2.8
10/10:30pm 25.1 26.0 23.3 90 1.2 ESE 24 35 13 19 1009.3 1008.7 0.0
10/10:00pm 27.1 27.7 22.1 74 3.4 E 22 33 12 18 1009.7 1009.1 0.0
10/09:30pm 29.5 30.2 22.2 65 5.0 ENE 22 37 12 20 1009.4 1008.8 0.0
10/09:00pm 31.7 36.2 24.6 66 5.0 WNW 9 11 5 6 1008.1 1007.5 0.0
10/08:30pm 31.6 36.2 24.2 65 5.2 WNW 7 9 4 5 1007.5 1006.9 0.0
10/08:00pm 31.7 37.1 25.1 68 4.7 NNW 6 7 3 4 1007.4 1006.8 0.0
10/07:30pm 32.4 36.4 22.8 57 6.6 N 6 9 3 5 1007.4 1006.8 0.0
10/07:00pm 32.9 36.3 22.0 52 7.5 ENE 7 9 4 5 1006.5 1005.9 0.0
10/06:30pm 33.6 36.2 20.4 46 8.8 NE 7 9 4 5 1006.2 1005.6 0.0
10/06:00pm 34.8 36.6 19.6 40 10.1 NE 9 11 5 6 1005.8 1005.2 0.0
10/05:30pm 35.7 37.7 19.2 38 10.9 NE 7 13 4 7 1005.7 1005.1 0.0
10/05:00pm 36.0 36.6 18.6 36 11.5 NE 13 22 7 12 1005.5 1004.9 0.0
10/04:30pm 35.9 36.8 18.5 36 11.4 NE 11 17 6 9 1005.2 1004.6 0.0
10/04:00pm 36.0 37.5 19.0 36 11.3 NNE 9 19 5 10 1005.3 1004.7 0.0
10/03:30pm 36.2 37.8 20.0 38 10.9 E 11 15 6 8 1005.4 1004.8 0.0
10/03:00pm 35.9 37.1 19.8 39 10.8 ENE 13 20 7 11 1005.5 1004.9 0.0
10/02:30pm 35.8 39.0 21.6 43 9.7 NNW 7 11 4 6 1006.0 1005.4 0.0
10/02:00pm 35.6 38.5 21.1 43 9.9 E 7 13 4 7 1006.5 1005.9 0.0
10/01:30pm 34.7 37.0 22.1 48 8.6 NNE 13 20 7 11 1006.9 1006.3 0.0
10/01:00pm 34.7 37.6 21.7 46 8.9 ESE 9 19 5 10 1007.5 1006.9 0.0
10/12:30pm 34.3 36.0 21.7 47 8.6 E 15 20 8 11 1008.0 1007.4 0.0
10/12:00pm 33.0 35.7 22.1 52 7.5 NNE 11 19 6 10 1008.5 1007.9 0.0
10/11:30am 33.0 36.0 22.7 54 7.1 ENE 11 19 6 10 1009.1 1008.5 0.0
10/11:00am 32.3 35.0 23.5 59 6.1 E 15 22 8 12 1009.6 1009.0 0.0
10/10:30am 31.4 34.4 22.7 60 6.0 ENE 11 19 6 10 1010.1 1009.5 0.0
10/10:00am 30.6 32.5 22.7 62 5.4 ESE 17 26 9 14 1010.5 1009.9 0.0
10/09:30am 30.5 34.1 23.7 67 4.7 ENE 11 17 6 9 1011.1 1010.5 0.0
10/09:00am 29.4 32.5 23.6 71 4.0 ENE 13 19 7 10 1011.3 1010.7 13.4
10/08:30am 28.8 32.1 23.9 75 3.4 E 13 20 7 11 1011.3 1010.7 13.4
10/08:00am 28.2 31.9 24.6 81 2.5 ENE 13 17 7 9 1011.1 1010.5 13.4
10/07:30am 27.2 31.6 24.5 85 1.9 NE 9 13 5 7 1010.9 1010.3 13.4
10/07:00am 26.8 31.8 24.8 89 1.4 NE 7 11 4 6 1010.1 1009.5 13.4
10/06:30am 26.2 31.1 24.6 91 1.1 ENE 7 9 4 5 1009.5 1008.9 13.4
10/06:00am 25.7 30.6 24.7 94 0.7 ENE 7 11 4 6 1008.9 1008.3 13.4
10/05:30am 25.4 30.2 24.4 94 0.7 ENE 7 11 4 6 1008.5 1007.9 13.4
10/05:00am 25.3 29.9 24.1 93 0.8 ENE 7 11 4 6 1008.0 1007.4 13.4
10/04:30am 25.2 28.8 24.3 95 0.6 NE 13 20 7 11 1007.6 1007.0 13.4
10/04:00am 24.9 28.9 24.4 97 0.3 E 11 15 6 8 1007.4 1006.8 13.4
10/03:30am 25.0 29.4 24.5 97 0.3 E 9 13 5 7 1007.6 1007.0 13.4
10/03:00am 24.9 29.7 24.4 97 0.3 NE 7 11 4 6 1007.9 1007.3 13.4
10/02:30am 25.0 29.6 24.7 98 0.2 NNE 9 13 5 7 1007.5 1006.9 13.4
10/02:00am 25.0 29.2 24.8 99 0.1 NNE 11 15 6 8 1007.4 1006.8 13.4
10/01:30am 25.0 29.6 24.8 99 0.1 NE 9 13 5 7 1007.7 1007.1 13.4
10/01:00am 25.1 30.1 24.8 98 0.2 NNE 7 9 4 5 1008.4 1007.8 13.4
10/12:30am 25.1 30.2 24.6 97 0.3 N 6 7 3 4 1008.9 1008.3 13.2
10/12:00am 25.1 30.0 24.6 97 0.3 NNW 7 11 4 6 1009.2 1008.6 13.0
 
Date/Time
WST
Temp
°C
App
Temp
°C
Dew
Point
°C
Rel
Hum
%
Delta-T
°C
Wind Press
QNH
hPa
Press
MSL
hPa
Rain since
9am
mm
Dir  Spd
km/h
Gust
km/h
Spd
kts
Gust
kts
09/11:30pm 24.9 28.5 24.4 97 0.3 NNW 13 17 7 9 1009.4 1008.8 13.0
09/11:00pm 25.2 29.8 24.2 94 0.7 NNE 7 11 4 6 1009.7 1009.1 12.8
09/10:30pm 25.7 29.5 24.1 91 1.1 NNE 11 19 6 10 1009.9 1009.3 11.8
09/10:00pm 25.8 28.4 24.0 90 1.2 ENE 17 22 9 12 1009.4 1008.8 11.8
09/09:30pm 25.9 29.9 23.8 88 1.4 E 9 13 5 7 1009.5 1008.9 11.8
09/09:00pm 25.9 28.9 23.4 86 1.7 NNE 13 20 7 11 1009.3 1008.7 11.6
09/08:30pm 27.3 28.6 23.3 79 2.7 ENE 22 32 12 17 1008.7 1008.1 11.0
09/08:00pm 28.7 30.9 24.0 76 3.3 ESE 19 28 10 15 1008.0 1007.4 11.0
09/07:30pm 27.7 30.6 24.5 83 2.2 SSE 17 20 9 11 1007.2 1006.6 11.0
09/07:00pm 28.3 31.7 23.4 75 3.4 S 11 19 6 10 1006.5 1005.9 10.8
09/06:30pm 28.3 30.6 23.4 75 3.4 SSE 17 24 9 13 1006.4 1005.8 8.2
09/06:00pm 30.1 33.1 23.3 67 4.7 SSE 13 26 7 14 1005.6 1005.0 7.8
09/05:30pm 29.9 32.1 22.6 65 5.0 NE 15 24 8 13 1004.7 1004.0 7.8
09/05:00pm 29.8 32.5 22.8 66 4.8 NE 13 19 7 10 1003.9 1003.2 7.8
09/04:30pm 29.0 31.9 23.2 71 4.0 NE 13 20 7 11 1003.6 1002.9 7.8
09/04:00pm 28.2 29.0 21.7 68 4.4 NNW 20 32 11 17 1003.9 1003.2 7.8
09/03:30pm 28.1 28.1 23.0 74 3.5 WNW 28 44 15 24 1003.4 1002.7 7.8
09/03:00pm 28.7 29.6 23.4 73 3.7 W 24 39 13 21 1003.6 1002.9 7.0
09/02:40pm 31.0 28.8 20.3 53 7.1 SSE 32 44 17 24 1003.7 1003.0 0.2
09/02:30pm 35.1 30.8 19.5 40 10.4 S 41 54 22 29 1003.1 1002.4 0.0
09/02:21pm 36.1 34.5 19.1 36 11.3 S 26 46 14 25 1003.2 1002.5 0.0
09/02:00pm 39.6 39.2 17.1 26 14.7 ENE 15 24 8 13 1003.1 1002.4 0.0
09/01:30pm 39.7 38.7 16.6 26 15.0 NE 17 26 9 14 1003.2 1002.5 0.0
09/01:00pm 40.9 39.8 16.3 23 16.0 NE 17 28 9 15 1003.5 1002.8 0.0
09/12:30pm 40.3 40.3 17.1 25 15.2 ESE 13 19 7 10 1004.0 1003.3 0.0
09/12:00pm 40.0 38.5 16.8 25 15.1 ENE 20 35 11 19 1004.3 1003.6 0.0
09/11:30am 39.5 37.7 17.0 26 14.6 ESE 22 32 12 17 1004.7 1004.0 0.0
09/11:00am 40.1 38.7 16.9 25 15.1 E 20 33 11 18 1004.9 1004.3 0.0
09/10:30am 39.0 37.7 17.2 28 14.2 E 20 33 11 18 1005.3 1004.7 0.0
09/10:00am 38.7 36.5 16.9 27 14.2 ESE 24 35 13 19 1005.8 1005.2 0.0
09/09:30am 38.5 37.0 17.8 29 13.6 E 22 32 12 17 1006.1 1005.5 0.0
09/09:00am 37.9 35.5 17.3 29 13.4 ESE 26 39 14 21 1006.4 1005.8 0.0
09/08:30am 37.1 34.6 17.1 30 12.9 ESE 26 41 14 22 1006.7 1006.1 0.0
09/08:00am 36.7 34.5 16.8 30 12.8 ESE 24 37 13 20 1006.8 1006.2 0.0
09/07:30am 35.1 32.9 16.9 34 11.7 ESE 24 35 13 19 1006.8 1006.2 0.0
09/07:00am 34.2 32.0 17.0 36 11.0 SE 24 33 13 18 1006.8 1006.2 0.0
09/06:30am 32.9 31.2 17.1 39 10.1 SE 22 33 12 18 1006.5 1005.9 0.0
09/06:00am 32.0 31.7 18.2 43 8.9 SE 17 24 9 13 1006.5 1005.9 0.0
09/05:30am 30.9 30.8 17.9 45 8.3 SE 15 19 8 10 1006.2 1005.6 0.0
09/05:00am 30.7 30.9 17.7 45 8.3 SE 13 19 7 10 1005.8 1005.2 0.0
09/04:30am 31.1 30.6 17.8 45 8.5 SSE 17 20 9 11 1005.6 1005.0 0.0
09/04:00am 31.4 30.9 17.7 44 8.8 SSE 17 20 9 11 1005.5 1004.9 0.0
09/03:30am 31.4 31.0 18.0 44 8.6 SSE 17 24 9 13 1005.3 1004.7 0.0
09/03:00am 31.3 31.2 17.9 44 8.6 S 15 19 8 10 1005.2 1004.6 0.0
09/02:30am 31.6 31.7 17.5 43 9.0 S 13 15 7 8 1005.0 1004.4 0.0
09/02:00am 31.8 32.0 17.7 43 9.1 S 13 20 7 11 1004.8 1004.2 0.0
09/01:30am 31.8 32.0 17.7 43 9.1 S 13 17 7 9 1005.0 1004.4 0.0
09/01:00am 31.9 32.2 17.0 41 9.5 S 11 13 6 7 1005.2 1004.6 0.0
09/12:30am 32.3 32.1 16.6 39 9.9 S 13 17 7 9 1005.4 1004.8 0.0
09/12:00am 32.7 32.4 16.5 37 10.3 S 13 17 7 9 1005.5 1004.9 0.0
 
Date/Time
WST
Temp
°C
App
Temp
°C
Dew
Point
°C
Rel
Hum
%
Delta-T
°C
Wind Press
QNH
hPa
Press
MSL
hPa
Rain since
9am
mm
Dir  Spd
km/h
Gust
km/h
Spd
kts
Gust
kts
08/11:30pm 33.0 31.9 16.4 37 10.5 S 17 22 9 12 1005.7 1005.1 0.0
08/11:00pm 33.6 32.2 16.5 36 10.9 SSW 19 22 10 12 1005.8 1005.2 0.0
08/10:30pm 34.1 33.2 16.9 36 11.0 SSW 17 20 9 11 1005.9 1005.3 0.0
08/10:00pm 34.6 33.5 17.3 35 11.2 SSW 19 26 10 14 1005.8 1005.2 0.0
08/09:30pm 35.3 33.7 17.5 34 11.5 S 22 30 12 16 1005.6 1005.0 0.0
08/09:00pm 35.2 35.3 17.4 34 11.5 SSW 13 15 7 8 1005.3 1004.7 0.0
08/08:30pm 35.9 36.4 16.6 31 12.4 SSE 9 15 5 8 1004.9 1004.3 0.0
08/08:00pm 35.4 35.4 17.1 33 11.8 SE 13 17 7 9 1004.9 1004.3 0.0
08/07:30pm 35.8 34.4 17.0 32 12.1 SSE 20 30 11 16 1004.8 1004.2 0.0
08/07:00pm 36.6 35.8 17.2 31 12.6 SSE 17 26 9 14 1004.8 1004.2 0.0
08/06:30pm 37.1 35.9 17.1 30 12.9 S 19 26 10 14 1004.1 1003.4 0.0
08/06:00pm 37.2 36.1 17.2 30 13.0 S 19 22 10 12 1003.5 1002.8 0.0
08/05:30pm 37.4 36.2 17.4 30 13.0 S 20 26 11 14 1003.2 1002.5 0.0
08/05:00pm 37.7 34.8 17.1 29 13.4 S 28 35 15 19 1002.9 1002.2 0.0
08/04:30pm 38.0 36.4 17.4 29 13.4 SSW 22 28 12 15 1002.5 1001.8 0.0
08/04:00pm 39.0 37.5 17.7 28 14.0 S 22 28 12 15 1002.2 1001.5 0.0
08/03:30pm 39.5 37.5 16.4 25 14.9 SSE 22 28 12 15 1002.3 1001.6 0.0
08/03:00pm 40.0 38.3 16.2 24 15.4 SE 20 30 11 16 1002.5 1001.8 0.0
08/02:30pm 41.7 38.9 16.3 22 16.5 SSE 26 39 14 21 1002.7 1002.0 0.0
08/02:00pm 40.6 39.0 16.1 24 15.9 SE 19 30 10 16 1003.0 1002.3 0.0
08/01:30pm 39.3 38.9 16.2 25 14.9 SE 13 26 7 14 1003.4 1002.7 0.0
08/01:00pm 40.4 38.6 15.9 23 15.8 SE 20 32 11 17 1003.9 1003.2 0.0
08/12:30pm 40.3 38.4 15.8 23 15.7 ESE 20 32 11 17 1004.2 1003.5 0.0
08/12:00pm 40.0 38.8 16.2 24 15.4 SE 17 30 9 16 1004.7 1004.0 0.0
08/11:30am 38.5 37.3 16.2 27 14.3 ESE 17 26 9 14 1005.4 1004.8 0.0
08/11:00am 39.7 39.3 17.2 27 14.7 ESE 15 22 8 12 1005.7 1005.1 0.0
08/10:30am 38.8 37.4 17.0 27 14.2 SE 20 30 11 16 1006.3 1005.7 0.0
08/10:00am 37.7 36.3 17.1 29 13.4 E 20 30 11 16 1006.8 1006.2 0.0
08/09:30am 37.3 35.6 17.3 30 13.0 ESE 22 28 12 15 1007.2 1006.6 0.0
08/09:00am 36.5 34.4 17.1 31 12.6 SE 24 37 13 20 1007.3 1006.7 0.0
08/08:30am 35.5 33.0 17.2 33 11.8 ESE 26 37 14 20 1007.4 1006.8 0.0
08/08:00am 34.8 33.4 18.0 37 11.0 ESE 22 35 12 19 1007.4 1006.8 0.0
08/07:30am 34.0 32.5 18.5 40 10.1 ESE 24 33 13 18 1007.5 1006.9 0.0
08/07:00am 33.0 32.8 19.8 45 8.8 ESE 20 28 11 15 1007.5 1006.9 0.0
08/06:30am 31.5 31.4 19.5 49 7.9 SE 19 28 10 15 1007.3 1006.7 0.0
08/06:00am 30.0 31.2 20.0 55 6.6 SE 13 19 7 10 1007.2 1006.6 0.0
08/05:30am 28.7 30.3 19.9 59 5.8 SE 11 13 6 7 1007.0 1006.4 0.0
08/05:00am 28.6 30.5 19.8 59 5.8 SE 9 13 5 7 1006.8 1006.2 0.0
08/04:30am 29.1 30.6 19.7 57 6.2 SE 11 15 6 8 1006.4 1005.8 0.0

Other Formats:

Comma delimited format used in spreadsheet applications
http://www.bom.gov.au/fwo/IDW60801/IDW60801.94204.axf

JavaScript Object Notation format (JSON) in row-major order
http://www.bom.gov.au/fwo/IDW60801/IDW60801.94204.json